createdAt,value
2023-08-28T00:05:05.485Z,1.40
2023-08-28T00:10:15.814Z,2.00
2023-08-28T00:15:26.085Z,2.40
2023-08-28T00:20:36.112Z,3.60
2023-08-28T00:25:46.561Z,4.40
2023-08-28T00:30:56.491Z,4.30
2023-08-28T00:36:07.171Z,5.10
2023-08-28T00:41:17.065Z,4.30
2023-08-28T00:46:27.200Z,5.40
2023-08-28T00:51:37.475Z,5.00
2023-08-28T00:56:48.265Z,5.30
2023-08-28T01:01:58.142Z,4.80
2023-08-28T01:07:21.515Z,4.60
2023-08-28T01:12:44.239Z,4.10
2023-08-28T01:17:59.832Z,4.40
2023-08-28T01:23:21.030Z,3.80
2023-08-28T01:28:32.203Z,4.10
2023-08-28T01:33:42.570Z,4.90
2023-08-28T01:39:00.375Z,4.60
2023-08-28T01:44:12.912Z,5.60
2023-08-28T01:49:22.731Z,4.40
2023-08-28T01:54:32.638Z,4.70
2023-08-28T01:59:42.244Z,5.00
2023-08-28T02:04:52.008Z,4.50
2023-08-28T02:10:02.001Z,4.80
2023-08-28T02:15:13.990Z,6.10
2023-08-28T02:20:24.003Z,4.90
2023-08-28T02:25:33.972Z,5.00
2023-08-28T02:30:43.887Z,4.50
2023-08-28T02:35:53.823Z,4.70
2023-08-28T02:41:10.616Z,4.80
2023-08-28T02:46:20.908Z,5.80
2023-08-28T02:51:30.948Z,4.40
2023-08-28T02:56:43.483Z,4.60
2023-08-28T03:01:53.138Z,4.90
2023-08-28T03:07:03.525Z,5.30
2023-08-28T03:12:14.403Z,5.40
2023-08-28T03:17:24.903Z,4.50
2023-08-28T03:22:34.904Z,4.30
2023-08-28T03:27:44.866Z,4.40
2023-08-28T03:32:54.936Z,5.00
2023-08-28T03:38:05.418Z,4.90
2023-08-28T03:43:15.837Z,4.50
2023-08-28T03:48:25.679Z,5.10
2023-08-28T03:53:35.589Z,5.70
2023-08-28T03:58:45.582Z,5.90
2023-08-28T04:03:55.335Z,5.40
2023-08-28T04:09:05.985Z,5.00
2023-08-28T04:14:15.899Z,6.00
2023-08-28T04:19:26.141Z,6.40
2023-08-28T04:24:36.112Z,5.50
2023-08-28T04:29:46.145Z,6.30
2023-08-28T04:34:55.793Z,5.00
2023-08-28T04:40:05.763Z,5.20
2023-08-28T04:45:15.959Z,5.70
2023-08-28T04:50:26.058Z,5.60
2023-08-28T04:55:35.836Z,7.20
2023-08-28T05:00:45.514Z,5.00
2023-08-28T05:05:55.785Z,4.60
2023-08-28T05:11:06.223Z,5.80
2023-08-28T05:16:16.472Z,6.50
2023-08-28T05:21:26.383Z,5.40
2023-08-28T05:26:36.355Z,6.90
2023-08-28T05:31:46.895Z,5.60
2023-08-28T05:36:56.660Z,5.40
2023-08-28T05:42:06.864Z,8.60
2023-08-28T05:47:16.490Z,5.70
2023-08-28T05:52:26.081Z,7.60
2023-08-28T05:57:36.277Z,7.60
2023-08-28T06:02:46.572Z,6.40
2023-08-28T06:07:56.440Z,6.70
2023-08-28T06:13:06.760Z,5.90
2023-08-28T06:18:17.034Z,7.10
2023-08-28T06:23:26.911Z,8.40
2023-08-28T06:28:36.649Z,6.30
2023-08-28T06:33:46.677Z,6.30
2023-08-28T06:38:56.257Z,9.10
2023-08-28T06:44:06.542Z,4.90
2023-08-28T06:49:16.253Z,5.10
2023-08-28T06:54:29.626Z,5.10
2023-08-28T06:59:43.480Z,4.90
2023-08-28T07:04:53.504Z,5.60
2023-08-28T07:10:05.737Z,4.60
2023-08-28T07:15:58.278Z,4.20
2023-08-28T07:21:09.491Z,4.60
2023-08-28T07:26:19.438Z,4.00
2023-08-28T07:31:29.505Z,4.70
2023-08-28T07:36:39.902Z,4.90
2023-08-28T07:41:49.565Z,4.30
2023-08-28T07:46:59.396Z,5.00
2023-08-28T07:52:09.910Z,4.80
2023-08-28T07:57:24.795Z,5.30
2023-08-28T08:02:34.764Z,5.60
2023-08-28T08:07:45.639Z,4.40
2023-08-28T08:12:55.384Z,4.20
2023-08-28T08:18:05.631Z,3.90
2023-08-28T08:23:15.438Z,4.40
2023-08-28T08:28:25.400Z,4.90
2023-08-28T08:33:35.146Z,5.40
2023-08-28T08:38:45.228Z,5.90
2023-08-28T08:43:55.039Z,5.40
2023-08-28T08:49:08.286Z,5.10
2023-08-28T08:54:25.965Z,5.30
2023-08-28T08:59:37.354Z,5.60
2023-08-28T09:04:51.404Z,5.60
2023-08-28T09:10:04.574Z,4.80
2023-08-28T09:15:16.254Z,5.60
2023-08-28T09:20:27.229Z,4.50
2023-08-28T09:25:37.484Z,4.60
2023-08-28T09:30:48.431Z,5.20
2023-08-28T09:36:02.895Z,4.30
2023-08-28T09:41:13.462Z,4.20
2023-08-28T09:46:25.276Z,4.70
2023-08-28T09:51:46.276Z,4.60
2023-08-28T09:56:56.080Z,4.20
2023-08-28T10:02:19.985Z,3.80
2023-08-28T10:07:33.709Z,4.20
2023-08-28T10:12:45.834Z,4.90
2023-08-28T10:17:58.351Z,4.40
2023-08-28T10:23:09.045Z,4.10
2023-08-28T10:28:20.022Z,3.70
2023-08-28T10:33:32.206Z,5.10
2023-08-28T10:38:55.135Z,4.10
2023-08-28T10:44:10.412Z,4.90
2023-08-28T10:49:22.759Z,5.40
2023-08-28T10:54:41.386Z,5.90
2023-08-28T10:59:51.737Z,5.30
2023-08-28T11:05:19.925Z,4.80
2023-08-28T11:10:30.514Z,5.20
2023-08-28T11:15:45.094Z,5.20
2023-08-28T11:20:58.698Z,4.90
2023-08-28T11:26:28.760Z,5.80
2023-08-28T11:31:38.679Z,6.00
2023-08-28T11:36:48.636Z,5.60
2023-08-28T11:41:58.643Z,5.70
2023-08-28T11:47:08.890Z,6.90
2023-08-28T11:52:23.205Z,6.90
2023-08-28T11:57:34.072Z,7.00
2023-08-28T12:02:48.565Z,7.20
2023-08-28T12:07:58.478Z,7.10
2023-08-28T12:13:09.636Z,7.10
2023-08-28T12:18:19.775Z,6.30
2023-08-28T12:23:29.573Z,6.20
2023-08-28T12:28:39.555Z,7.10
2023-08-28T12:33:49.835Z,8.30
2023-08-28T12:39:01.441Z,7.60
2023-08-28T12:44:13.915Z,6.80
2023-08-28T12:49:25.350Z,6.90
2023-08-28T12:54:35.848Z,7.20
2023-08-28T12:59:45.770Z,8.60
2023-08-28T13:04:55.769Z,6.50
2023-08-28T13:10:07.155Z,6.70
2023-08-28T13:15:18.051Z,8.60
2023-08-28T13:20:29.175Z,7.80
2023-08-28T13:25:39.230Z,8.70
2023-08-28T13:30:49.483Z,8.80
2023-08-28T13:35:59.475Z,9.50
2023-08-28T13:41:09.481Z,7.40
2023-08-28T13:46:19.292Z,8.60
2023-08-28T13:51:29.162Z,8.00
2023-08-28T13:56:39.192Z,7.10
2023-08-28T14:01:49.248Z,7.60
2023-08-28T14:06:59.696Z,8.30
2023-08-28T14:12:11.171Z,8.50
2023-08-28T14:17:21.207Z,7.80
2023-08-28T14:22:31.843Z,7.50
2023-08-28T14:27:53.656Z,8.50
2023-08-28T14:33:07.726Z,11.90
2023-08-28T14:38:19.325Z,9.10
2023-08-28T14:43:29.284Z,8.80
2023-08-28T14:48:39.640Z,10.40
2023-08-28T14:53:53.294Z,9.50
2023-08-28T14:59:04.665Z,8.70
2023-08-28T15:04:14.924Z,7.80
2023-08-28T15:09:25.673Z,9.20
2023-08-28T15:14:36.156Z,9.40
2023-08-28T15:19:46.843Z,7.60
2023-08-28T15:24:57.706Z,7.90
2023-08-28T15:30:09.134Z,7.60
2023-08-28T15:35:21.024Z,7.80
2023-08-28T15:40:31.581Z,7.90
2023-08-28T15:45:54.032Z,7.30
2023-08-28T15:51:05.023Z,9.00
2023-08-28T15:56:15.385Z,8.60
2023-08-28T16:01:25.402Z,7.80
2023-08-28T16:06:35.643Z,9.60
2023-08-28T16:11:53.857Z,9.10
2023-08-28T16:17:04.641Z,9.00
2023-08-28T16:22:15.441Z,7.90
2023-08-28T16:27:25.467Z,9.20
2023-08-28T16:32:36.039Z,8.50
2023-08-28T16:37:47.130Z,8.10
2023-08-28T16:42:57.158Z,10.50
2023-08-28T16:48:08.557Z,8.90
2023-08-28T16:53:19.031Z,8.90
2023-08-28T16:58:29.588Z,8.60
2023-08-28T17:03:39.932Z,8.80
2023-08-28T17:08:50.060Z,22.80
2023-08-28T17:13:59.914Z,10.40
2023-08-28T17:19:10.148Z,9.60
2023-08-28T17:24:20.333Z,9.80
2023-08-28T17:29:30.444Z,9.50
2023-08-28T17:34:40.458Z,10.10
2023-08-28T17:39:50.476Z,9.80
2023-08-28T17:45:00.849Z,10.10
2023-08-28T17:50:13.025Z,9.40
2023-08-28T17:55:23.503Z,12.10
2023-08-28T18:00:34.028Z,11.40
2023-08-28T18:05:44.427Z,12.30
2023-08-28T18:10:54.689Z,11.20
2023-08-28T18:16:15.865Z,10.40
2023-08-28T18:21:26.045Z,10.90
2023-08-28T18:26:36.232Z,10.10
2023-08-28T18:31:47.598Z,10.50
2023-08-28T18:36:57.807Z,10.20
2023-08-28T18:42:09.956Z,10.80
2023-08-28T18:47:20.187Z,10.20
2023-08-28T18:52:30.373Z,9.60
2023-08-28T18:57:41.732Z,10.00
2023-08-28T19:02:52.030Z,8.80
2023-08-28T19:08:02.898Z,11.20
2023-08-28T19:13:13.454Z,12.80
2023-08-28T19:18:24.671Z,9.40
2023-08-28T19:23:36.078Z,11.60
2023-08-28T19:28:46.334Z,8.30
2023-08-28T19:33:56.311Z,10.10
2023-08-28T19:39:08.449Z,9.60
2023-08-28T19:44:18.882Z,9.90
2023-08-28T19:49:28.882Z,8.90
2023-08-28T19:54:40.062Z,8.40
2023-08-28T19:59:50.614Z,8.90
2023-08-28T20:05:00.915Z,9.10
2023-08-28T20:10:12.398Z,9.90
2023-08-28T20:15:23.654Z,7.80
2023-08-28T20:20:33.686Z,8.80
2023-08-28T20:25:44.609Z,8.50
2023-08-28T20:30:54.859Z,8.50
2023-08-28T20:36:04.722Z,9.30
2023-08-28T20:41:14.737Z,10.10
2023-08-28T20:46:26.234Z,10.80
2023-08-28T20:51:37.582Z,10.20
2023-08-28T20:56:47.451Z,10.40
2023-08-28T21:01:57.251Z,11.20
2023-08-28T21:07:07.082Z,7.50
2023-08-28T21:12:16.826Z,10.20
2023-08-28T21:17:26.777Z,8.70
2023-08-28T21:22:36.559Z,10.10
2023-08-28T21:27:46.354Z,9.30
2023-08-28T21:32:56.498Z,9.10
2023-08-28T21:38:06.839Z,7.60
2023-08-28T21:43:17.025Z,9.10
2023-08-28T21:48:27.258Z,8.30
2023-08-28T21:53:37.220Z,9.00
2023-08-28T21:58:47.069Z,8.30
2023-08-28T22:03:57.655Z,8.80
2023-08-28T22:09:08.074Z,7.90
2023-08-28T22:14:17.978Z,8.10
2023-08-28T22:19:27.825Z,9.30
2023-08-28T22:24:38.780Z,9.20
2023-08-28T22:29:48.620Z,8.60
2023-08-28T22:34:58.542Z,8.70
2023-08-28T22:40:11.024Z,7.70
2023-08-28T22:45:22.072Z,8.10
2023-08-28T22:50:31.974Z,8.10
2023-08-28T22:55:42.213Z,7.70
2023-08-28T23:00:55.657Z,8.50
2023-08-28T23:06:06.898Z,8.00
2023-08-28T23:11:17.322Z,8.20
2023-08-28T23:16:27.568Z,8.20
2023-08-28T23:21:38.245Z,10.40
2023-08-28T23:26:48.215Z,8.80
2023-08-28T23:31:58.110Z,8.80
2023-08-28T23:37:10.671Z,9.10
2023-08-28T23:42:20.989Z,7.90
2023-08-28T23:47:31.064Z,8.60
2023-08-28T23:52:41.831Z,8.50
2023-08-28T23:57:52.424Z,9.90
